createdAt,value
2018-11-02T00:00:31.252Z,1006.95
2018-11-02T00:01:31.249Z,1006.92
2018-11-02T00:02:31.229Z,1006.92
2018-11-02T00:03:31.215Z,1006.89
2018-11-02T00:04:31.236Z,1006.92
2018-11-02T00:05:31.194Z,1006.97
2018-11-02T00:06:31.182Z,1007.00
2018-11-02T00:07:31.185Z,1007.02
2018-11-02T00:08:31.161Z,1007.02
2018-11-02T00:09:31.175Z,1007.01
2018-11-02T00:10:31.138Z,1006.98
2018-11-02T00:11:31.136Z,1006.99
2018-11-02T00:12:31.228Z,1007.06
2018-11-02T00:13:31.107Z,1007.12
2018-11-02T00:14:31.132Z,1007.18
2018-11-02T00:15:31.083Z,1007.30
2018-11-02T00:16:31.073Z,1007.31
2018-11-02T00:17:31.062Z,1007.33
2018-11-02T00:18:31.057Z,1007.32
2018-11-02T00:19:31.063Z,1007.36
2018-11-02T00:20:31.028Z,1007.33
2018-11-02T00:21:31.066Z,1007.39
2018-11-02T00:22:31.011Z,1007.38
2018-11-02T00:23:30.994Z,1007.37
2018-11-02T00:24:31.009Z,1007.40
2018-11-02T00:25:30.976Z,1007.38
2018-11-02T00:26:30.972Z,1007.33
2018-11-02T00:27:30.947Z,1007.40
2018-11-02T00:28:30.937Z,1007.44
2018-11-02T00:29:30.933Z,1007.43
2018-11-02T00:30:30.942Z,1007.42
2018-11-02T00:31:30.906Z,1007.43
2018-11-02T00:32:30.894Z,1007.47
2018-11-02T00:33:30.883Z,1007.48
2018-11-02T00:34:30.878Z,1007.53
2018-11-02T00:35:30.893Z,1007.53
2018-11-02T00:36:30.849Z,1007.58
2018-11-02T00:37:30.836Z,1007.58
2018-11-02T00:38:30.826Z,1007.58
2018-11-02T00:39:30.848Z,1007.59
2018-11-02T00:40:30.829Z,1007.57
2018-11-02T00:41:30.808Z,1007.58
2018-11-02T00:42:30.781Z,1007.63
2018-11-02T00:43:30.769Z,1007.68
2018-11-02T00:44:30.762Z,1007.66
2018-11-02T00:45:30.771Z,1007.65
2018-11-02T00:46:30.768Z,1007.66
2018-11-02T00:47:30.737Z,1007.70
2018-11-02T00:48:30.728Z,1007.73
2018-11-02T00:49:30.707Z,1007.66
2018-11-02T00:50:30.716Z,1007.70
2018-11-02T00:51:30.683Z,1007.67
2018-11-02T00:52:30.669Z,1007.63
2018-11-02T00:53:30.668Z,1007.67
2018-11-02T00:54:30.653Z,1007.66
2018-11-02T00:55:30.662Z,1007.69
2018-11-02T00:56:30.624Z,1007.66
2018-11-02T00:57:30.615Z,1007.69
2018-11-02T00:58:30.602Z,1007.68
2018-11-02T00:59:30.591Z,1007.78
2018-11-02T01:00:30.620Z,1007.75
2018-11-02T01:01:30.577Z,1007.81
2018-11-02T01:02:30.557Z,1007.84
2018-11-02T01:03:30.547Z,1007.83
2018-11-02T01:04:30.547Z,1007.83
2018-11-02T01:05:30.553Z,1007.87
2018-11-02T01:06:30.514Z,1007.92
2018-11-02T01:07:30.502Z,1007.90
2018-11-02T01:08:30.494Z,1007.94
2018-11-02T01:09:30.488Z,1007.92
2018-11-02T01:10:30.497Z,1007.96
2018-11-02T01:11:30.456Z,1007.99
2018-11-02T01:12:30.448Z,1007.98
2018-11-02T01:13:30.435Z,1007.97
2018-11-02T01:14:30.425Z,1007.99
2018-11-02T01:15:30.458Z,1008.01
2018-11-02T01:16:30.463Z,1008.01
2018-11-02T01:17:30.389Z,1008.01
2018-11-02T01:18:30.378Z,1008.01
2018-11-02T01:19:30.378Z,1007.98
2018-11-02T01:20:30.385Z,1007.98
2018-11-02T01:21:30.390Z,1008.02
2018-11-02T01:22:30.334Z,1008.01
2018-11-02T01:23:30.328Z,1008.06
2018-11-02T01:24:30.327Z,1008.06
2018-11-02T01:25:30.324Z,1008.11
2018-11-02T01:26:30.294Z,1008.13
2018-11-02T01:27:30.286Z,1008.16
2018-11-02T01:28:30.268Z,1008.18
2018-11-02T01:29:30.257Z,1008.23
2018-11-02T01:30:30.274Z,1008.22
2018-11-02T01:31:30.234Z,1008.19
2018-11-02T01:32:30.226Z,1008.16
2018-11-02T01:33:30.220Z,1008.20
2018-11-02T01:34:30.202Z,1008.19
2018-11-02T01:35:30.215Z,1008.21
2018-11-02T01:36:30.181Z,1008.27
2018-11-02T01:37:30.167Z,1008.31
2018-11-02T01:38:30.159Z,1008.29
2018-11-02T01:39:30.144Z,1008.34
2018-11-02T01:40:30.159Z,1008.34
2018-11-02T01:41:30.138Z,1008.32
2018-11-02T01:42:30.114Z,1008.30
2018-11-02T01:43:30.103Z,1008.35
2018-11-02T01:44:30.095Z,1008.34
2018-11-02T01:45:30.107Z,1008.34
2018-11-02T01:46:30.069Z,1008.36
2018-11-02T01:47:30.058Z,1008.35
2018-11-02T01:48:30.102Z,1008.41
2018-11-02T01:49:30.034Z,1008.40
2018-11-02T01:50:30.063Z,1008.41
2018-11-02T01:51:30.015Z,1008.44
2018-11-02T01:52:30.003Z,1008.45
2018-11-02T01:53:29.989Z,1008.39
2018-11-02T01:54:29.977Z,1008.44
2018-11-02T01:55:29.994Z,1008.43
2018-11-02T01:56:29.956Z,1008.46
2018-11-02T01:57:29.943Z,1008.47
2018-11-02T01:58:29.932Z,1008.54
2018-11-02T01:59:29.924Z,1008.58
2018-11-02T02:00:29.940Z,1008.54
2018-11-02T02:01:29.900Z,1008.61
2018-11-02T02:02:29.892Z,1008.63
2018-11-02T02:03:29.877Z,1008.63
2018-11-02T02:04:29.865Z,1008.62
2018-11-02T02:05:29.879Z,1008.64
2018-11-02T02:06:29.875Z,1008.66
2018-11-02T02:07:29.840Z,1008.70
2018-11-02T02:08:29.824Z,1008.69
2018-11-02T02:09:29.812Z,1008.74
2018-11-02T02:10:29.821Z,1008.75
2018-11-02T02:11:29.788Z,1008.76
2018-11-02T02:12:29.782Z,1008.78
2018-11-02T02:13:29.770Z,1008.78
2018-11-02T02:14:29.758Z,1008.85
2018-11-02T02:15:29.767Z,1008.81
2018-11-02T02:16:29.734Z,1008.76
2018-11-02T02:17:29.752Z,1008.79
2018-11-02T02:18:29.762Z,1008.84
2018-11-02T02:19:29.708Z,1008.88
2018-11-02T02:20:29.713Z,1008.88
2018-11-02T02:21:29.677Z,1008.91
2018-11-02T02:22:29.678Z,1008.91
2018-11-02T02:23:29.656Z,1008.91
2018-11-02T02:24:29.646Z,1008.95
2018-11-02T02:25:29.655Z,1008.91
2018-11-02T02:26:29.625Z,1008.94
2018-11-02T02:27:29.609Z,1008.93
2018-11-02T02:28:29.604Z,1008.93
2018-11-02T02:29:29.590Z,1008.91
2018-11-02T02:30:29.604Z,1008.91
2018-11-02T02:31:29.567Z,1008.94
2018-11-02T02:32:29.564Z,1008.94
2018-11-02T02:33:29.541Z,1008.97
2018-11-02T02:34:29.533Z,1008.97
2018-11-02T02:35:29.522Z,1009.01
2018-11-02T02:36:29.551Z,1009.01
2018-11-02T02:37:29.501Z,1009.09
2018-11-02T02:38:29.487Z,1009.12
2018-11-02T02:39:29.476Z,1009.14
2018-11-02T02:40:29.478Z,1009.16
2018-11-02T02:41:29.485Z,1009.22
2018-11-02T02:42:29.462Z,1009.26
2018-11-02T02:43:29.431Z,1009.22
2018-11-02T02:44:29.437Z,1009.25
2018-11-02T02:45:29.409Z,1009.27
2018-11-02T02:46:29.425Z,1009.28
2018-11-02T02:47:29.385Z,1009.31
2018-11-02T02:48:29.386Z,1009.32
2018-11-02T02:49:29.364Z,1009.29
2018-11-02T02:50:29.354Z,1009.33
2018-11-02T02:51:29.363Z,1009.29
2018-11-02T02:52:29.340Z,1009.30
2018-11-02T02:53:29.355Z,1009.33
2018-11-02T02:54:29.309Z,1009.37
2018-11-02T02:55:29.314Z,1009.44
2018-11-02T02:56:29.308Z,1009.42
2018-11-02T02:57:29.276Z,1009.47
2018-11-02T02:58:29.276Z,1009.45
2018-11-02T02:59:29.252Z,1009.47
2018-11-02T03:00:29.247Z,1009.46
2018-11-02T03:01:29.256Z,1009.52
2018-11-02T03:02:29.218Z,1009.50
2018-11-02T03:03:29.217Z,1009.52
2018-11-02T03:04:29.199Z,1009.52
2018-11-02T03:05:29.187Z,1009.57
2018-11-02T03:06:29.242Z,1009.57
2018-11-02T03:07:29.164Z,1009.57
2018-11-02T03:08:29.177Z,1009.61
2018-11-02T03:09:29.148Z,1009.64
2018-11-02T03:10:29.197Z,1009.66
2018-11-02T03:11:29.140Z,1009.68
2018-11-02T03:12:29.128Z,1009.70
2018-11-02T03:13:29.094Z,1009.70
2018-11-02T03:14:29.086Z,1009.76
2018-11-02T03:15:29.076Z,1009.72
2018-11-02T03:16:29.085Z,1009.70
2018-11-02T03:17:29.059Z,1009.75
2018-11-02T03:18:29.053Z,1009.73
2018-11-02T03:19:29.033Z,1009.80
2018-11-02T03:20:29.016Z,1009.73
2018-11-02T03:21:29.036Z,1009.77
2018-11-02T03:22:29.070Z,1009.74
2018-11-02T03:23:28.996Z,1009.82
2018-11-02T03:24:28.975Z,1009.80
2018-11-02T03:25:28.964Z,1009.81
2018-11-02T03:26:28.993Z,1009.80
2018-11-02T03:27:28.938Z,1009.80
2018-11-02T03:28:28.928Z,1009.87
2018-11-02T03:29:28.921Z,1009.85
2018-11-02T03:30:28.906Z,1009.86
2018-11-02T03:31:28.924Z,1009.87
2018-11-02T03:32:28.883Z,1009.89
2018-11-02T03:33:28.890Z,1009.95
2018-11-02T03:34:28.864Z,1009.94
2018-11-02T03:35:28.852Z,1009.99
2018-11-02T03:36:28.865Z,1009.96
2018-11-02T03:37:28.830Z,1009.96
2018-11-02T03:38:28.817Z,1010.02
2018-11-02T03:39:28.823Z,1010.05
2018-11-02T03:40:28.796Z,1010.03
2018-11-02T03:41:28.808Z,1010.08
2018-11-02T03:42:28.772Z,1010.02
2018-11-02T03:43:28.824Z,1010.08
2018-11-02T03:44:28.751Z,1010.06
2018-11-02T03:45:28.749Z,1010.11
2018-11-02T03:46:28.753Z,1010.16
2018-11-02T03:47:28.717Z,1010.17
2018-11-02T03:48:28.706Z,1010.18
2018-11-02T03:49:28.696Z,1010.22
2018-11-02T03:50:28.681Z,1010.25
2018-11-02T03:51:28.703Z,1010.28
2018-11-02T03:52:28.667Z,1010.29
2018-11-02T03:53:28.649Z,1010.37
2018-11-02T03:54:28.640Z,1010.44
2018-11-02T03:55:28.630Z,1010.48
2018-11-02T03:56:28.725Z,1010.49
2018-11-02T03:57:28.604Z,1010.47
2018-11-02T03:58:28.602Z,1010.51
2018-11-02T03:59:28.580Z,1010.53
2018-11-02T04:00:28.569Z,1010.55
2018-11-02T04:01:28.584Z,1010.60
2018-11-02T04:02:28.548Z,1010.63
2018-11-02T04:03:28.537Z,1010.62
2018-11-02T04:04:28.539Z,1010.64
2018-11-02T04:05:28.514Z,1010.67
2018-11-02T04:06:28.531Z,1010.69
2018-11-02T04:07:28.492Z,1010.69
2018-11-02T04:08:28.481Z,1010.74
2018-11-02T04:09:28.633Z,1010.78
2018-11-02T04:10:28.462Z,1010.81
2018-11-02T04:11:28.472Z,1010.89
2018-11-02T04:12:28.443Z,1010.91
2018-11-02T04:13:28.428Z,1010.92
2018-11-02T04:14:28.414Z,1010.93
2018-11-02T04:15:28.405Z,1010.91
2018-11-02T04:16:28.419Z,1010.96
2018-11-02T04:17:28.379Z,1010.95
2018-11-02T04:18:28.412Z,1010.99
2018-11-02T04:19:28.359Z,1011.09
2018-11-02T04:20:28.347Z,1011.05
2018-11-02T04:21:28.361Z,1011.14
2018-11-02T04:22:28.333Z,1011.15
2018-11-02T04:23:28.312Z,1011.15
2018-11-02T04:24:28.342Z,1011.13
2018-11-02T04:25:28.305Z,1011.10
2018-11-02T04:26:28.307Z,1011.10
2018-11-02T04:27:28.271Z,1011.12
2018-11-02T04:28:28.277Z,1011.15
2018-11-02T04:29:28.247Z,1011.13
2018-11-02T04:30:28.237Z,1011.13
2018-11-02T04:31:28.254Z,1011.16
2018-11-02T04:32:28.224Z,1011.17
2018-11-02T04:33:28.203Z,1011.23
2018-11-02T04:34:28.191Z,1011.21
2018-11-02T04:35:28.182Z,1011.23
2018-11-02T04:36:28.172Z,1011.25
2018-11-02T04:37:28.196Z,1011.23
2018-11-02T04:38:28.150Z,1011.23
2018-11-02T04:39:28.133Z,1011.32
2018-11-02T04:40:28.130Z,1011.27
2018-11-02T04:41:28.136Z,1011.32
2018-11-02T04:42:28.103Z,1011.33
2018-11-02T04:43:28.094Z,1011.32
2018-11-02T04:44:28.081Z,1011.38
2018-11-02T04:45:28.076Z,1011.46
2018-11-02T04:46:28.060Z,1011.40
2018-11-02T04:47:28.069Z,1011.45
2018-11-02T04:48:28.044Z,1011.51
2018-11-02T04:49:28.028Z,1011.44
2018-11-02T04:50:28.022Z,1011.45
2018-11-02T04:51:28.011Z,1011.48
2018-11-02T04:52:28.021Z,1011.48
2018-11-02T04:53:27.982Z,1011.50
2018-11-02T04:54:27.967Z,1011.62
2018-11-02T04:55:27.967Z,1011.53
2018-11-02T04:56:27.948Z,1011.59
2018-11-02T04:57:27.959Z,1011.60
2018-11-02T04:58:27.923Z,1011.60
2018-11-02T04:59:27.914Z,1011.68
2018-11-02T05:00:27.913Z,1011.65
2018-11-02T05:01:27.890Z,1011.70
2018-11-02T05:02:27.901Z,1011.75
2018-11-02T05:03:27.867Z,1011.73
2018-11-02T05:04:27.858Z,1011.78
2018-11-02T05:05:27.845Z,1011.79
2018-11-02T05:06:27.849Z,1011.75
2018-11-02T05:07:27.848Z,1011.81
2018-11-02T05:08:27.811Z,1011.80
2018-11-02T05:09:27.803Z,1011.87
2018-11-02T05:10:27.793Z,1011.90
2018-11-02T05:11:27.836Z,1011.89
2018-11-02T05:12:27.789Z,1011.92
2018-11-02T05:13:27.763Z,1011.93
2018-11-02T05:14:27.752Z,1011.98
2018-11-02T05:15:27.733Z,1011.99
2018-11-02T05:16:27.731Z,1012.08
2018-11-02T05:17:27.739Z,1012.10
2018-11-02T05:18:27.742Z,1012.11
2018-11-02T05:19:27.690Z,1012.19
2018-11-02T05:20:27.683Z,1012.20
2018-11-02T05:21:27.861Z,1012.26
2018-11-02T05:22:27.682Z,1012.27
2018-11-02T05:23:27.645Z,1012.28
2018-11-02T05:24:27.648Z,1012.27
2018-11-02T05:25:27.625Z,1012.28
2018-11-02T05:26:27.616Z,1012.32
2018-11-02T05:27:27.627Z,1012.29
2018-11-02T05:28:27.591Z,1012.35
2018-11-02T05:29:27.577Z,1012.39
2018-11-02T05:30:27.570Z,1012.41
2018-11-02T05:31:27.558Z,1012.48
2018-11-02T05:32:27.576Z,1012.49
2018-11-02T05:33:27.539Z,1012.46
2018-11-02T05:34:27.520Z,1012.48
2018-11-02T05:35:27.512Z,1012.45
2018-11-02T05:36:27.500Z,1012.52
2018-11-02T05:37:27.512Z,1012.52
2018-11-02T05:38:27.479Z,1012.55
2018-11-02T05:39:27.473Z,1012.51
2018-11-02T05:40:27.462Z,1012.51
2018-11-02T05:41:27.445Z,1012.53
2018-11-02T05:42:27.460Z,1012.52
2018-11-02T05:43:27.424Z,1012.51
2018-11-02T05:44:27.409Z,1012.52
2018-11-02T05:45:27.398Z,1012.53
2018-11-02T05:46:27.414Z,1012.51
2018-11-02T05:47:27.427Z,1012.57
2018-11-02T05:48:27.401Z,1012.59
2018-11-02T05:49:27.361Z,1012.62
2018-11-02T05:50:27.348Z,1012.62
2018-11-02T05:51:27.339Z,1012.71
2018-11-02T05:52:27.350Z,1012.70
2018-11-02T05:53:27.343Z,1012.72
2018-11-02T05:54:27.404Z,1012.72
2018-11-02T05:55:27.298Z,1012.70
2018-11-02T05:56:27.279Z,1012.72
2018-11-02T05:57:27.290Z,1012.80
2018-11-02T05:58:27.258Z,1012.79
2018-11-02T05:59:27.244Z,1012.83
2018-11-02T06:00:27.233Z,1012.81
2018-11-02T06:01:27.262Z,1012.86
2018-11-02T06:02:27.237Z,1012.89
2018-11-02T06:03:27.199Z,1012.89
2018-11-02T06:04:27.196Z,1012.91
2018-11-02T06:05:27.174Z,1012.94
2018-11-02T06:06:27.182Z,1012.95
2018-11-02T06:07:27.179Z,1012.93
2018-11-02T06:08:27.154Z,1013.01
2018-11-02T06:09:27.131Z,1013.01
2018-11-02T06:10:27.119Z,1013.06
2018-11-02T06:11:27.126Z,1013.09
2018-11-02T06:12:27.124Z,1013.11
2018-11-02T06:13:27.091Z,1013.10
2018-11-02T06:14:27.077Z,1013.19
2018-11-02T06:15:27.068Z,1013.21
2018-11-02T06:16:27.052Z,1013.20
2018-11-02T06:17:27.069Z,1013.20
2018-11-02T06:18:27.034Z,1013.24
2018-11-02T06:19:27.037Z,1013.29
2018-11-02T06:20:27.009Z,1013.26
2018-11-02T06:21:26.999Z,1013.28
2018-11-02T06:22:27.011Z,1013.28
2018-11-02T06:23:26.976Z,1013.31
2018-11-02T06:24:27.093Z,1013.31
2018-11-02T06:25:26.952Z,1013.35
2018-11-02T06:26:26.942Z,1013.34
2018-11-02T06:27:26.959Z,1013.39
2018-11-02T06:28:26.929Z,1013.43
2018-11-02T06:29:26.910Z,1013.44
2018-11-02T06:30:26.919Z,1013.48
2018-11-02T06:31:26.902Z,1013.44
2018-11-02T06:32:26.919Z,1013.44
2018-11-02T06:33:26.869Z,1013.45
2018-11-02T06:34:26.852Z,1013.44
2018-11-02T06:35:26.841Z,1013.44
2018-11-02T06:36:26.830Z,1013.46
2018-11-02T06:37:26.869Z,1013.47
2018-11-02T06:38:26.810Z,1013.53
2018-11-02T06:39:26.797Z,1013.49
2018-11-02T06:40:26.787Z,1013.56
2018-11-02T06:41:26.801Z,1013.58
2018-11-02T06:42:26.768Z,1013.60
2018-11-02T06:43:26.780Z,1013.64
2018-11-02T06:44:26.744Z,1013.66
2018-11-02T06:45:26.733Z,1013.67
2018-11-02T06:46:26.733Z,1013.70
2018-11-02T06:47:26.711Z,1013.70
2018-11-02T06:48:26.721Z,1013.72
2018-11-02T06:49:26.692Z,1013.73
2018-11-02T06:50:26.675Z,1013.77
2018-11-02T06:51:26.669Z,1013.82
2018-11-02T06:52:26.654Z,1013.84
2018-11-02T06:53:26.665Z,1013.84
2018-11-02T06:54:26.638Z,1013.84
2018-11-02T06:55:26.622Z,1013.88
2018-11-02T06:56:26.608Z,1013.88
2018-11-02T06:57:26.615Z,1013.86
2018-11-02T06:58:26.609Z,1013.89
2018-11-02T06:59:26.824Z,1013.91
2018-11-02T07:00:26.611Z,1013.91
2018-11-02T07:01:26.559Z,1013.96
2018-11-02T07:02:26.543Z,1013.94
2018-11-02T07:03:26.555Z,1013.94
2018-11-02T07:04:26.518Z,1013.96
2018-11-02T07:05:26.508Z,1013.98
2018-11-02T07:06:26.499Z,1014.00
2018-11-02T07:07:26.566Z,1013.98
2018-11-02T07:08:26.653Z,1014.02
2018-11-02T07:09:26.464Z,1014.08
2018-11-02T07:10:26.452Z,1014.06
2018-11-02T07:11:26.443Z,1014.07
2018-11-02T07:12:26.436Z,1014.07
2018-11-02T07:13:26.456Z,1014.05
2018-11-02T07:14:26.408Z,1014.07
2018-11-02T07:15:26.395Z,1014.05
2018-11-02T07:16:26.385Z,1014.05
2018-11-02T07:17:26.375Z,1014.04
2018-11-02T07:18:26.385Z,1014.07
2018-11-02T07:19:26.357Z,1014.05
2018-11-02T07:20:26.342Z,1014.07
2018-11-02T07:21:26.337Z,1014.09
2018-11-02T07:22:26.319Z,1014.08
2018-11-02T07:23:26.332Z,1014.09
2018-11-02T07:24:26.295Z,1014.14
2018-11-02T07:25:26.285Z,1014.16
2018-11-02T07:26:26.287Z,1014.12
2018-11-02T07:27:26.263Z,1014.15
2018-11-02T07:28:26.278Z,1014.22
2018-11-02T07:29:26.247Z,1014.22
2018-11-02T07:30:26.233Z,1014.23
2018-11-02T07:31:26.217Z,1014.26
2018-11-02T07:32:26.299Z,1014.24
2018-11-02T07:33:26.220Z,1014.27
2018-11-02T07:34:26.273Z,1014.22
2018-11-02T07:35:26.177Z,1014.22
2018-11-02T07:36:26.165Z,1014.26
2018-11-02T07:37:26.152Z,1014.26
2018-11-02T07:38:26.165Z,1014.27
2018-11-02T07:39:26.130Z,1014.24
2018-11-02T07:40:26.117Z,1014.28
2018-11-02T07:41:26.122Z,1014.26
2018-11-02T07:42:26.098Z,1014.30
2018-11-02T07:43:26.120Z,1014.27
2018-11-02T07:44:26.073Z,1014.28
2018-11-02T07:45:26.063Z,1014.26
2018-11-02T07:46:26.062Z,1014.32
2018-11-02T07:47:26.102Z,1014.35
2018-11-02T07:48:26.054Z,1014.35
2018-11-02T07:49:26.094Z,1014.33
2018-11-02T07:50:26.008Z,1014.35
2018-11-02T07:51:25.996Z,1014.41
2018-11-02T07:52:25.985Z,1014.39
2018-11-02T07:53:25.997Z,1014.34
2018-11-02T07:54:25.964Z,1014.37
2018-11-02T07:55:25.974Z,1014.38
2018-11-02T07:56:26.020Z,1014.37
2018-11-02T07:57:25.929Z,1014.43
2018-11-02T07:58:25.943Z,1014.45
2018-11-02T07:59:25.905Z,1014.41
2018-11-02T08:00:25.926Z,1014.54
2018-11-02T08:01:25.883Z,1014.52
2018-11-02T08:02:25.894Z,1014.56
2018-11-02T08:03:25.896Z,1014.54
2018-11-02T08:04:25.856Z,1014.58
2018-11-02T08:05:25.844Z,1014.59
2018-11-02T08:06:25.829Z,1014.56
2018-11-02T08:07:25.818Z,1014.63
2018-11-02T08:08:25.846Z,1014.60
2018-11-02T08:09:25.796Z,1014.59
2018-11-02T08:10:25.782Z,1014.64
2018-11-02T08:11:25.845Z,1014.67
2018-11-02T08:12:25.773Z,1014.70
2018-11-02T08:13:25.773Z,1014.77
2018-11-02T08:14:25.740Z,1014.76
2018-11-02T08:15:25.734Z,1014.76
2018-11-02T08:16:25.720Z,1014.78
2018-11-02T08:17:25.720Z,1014.80
2018-11-02T08:18:25.729Z,1014.79
2018-11-02T08:19:25.683Z,1014.73
2018-11-02T08:20:25.674Z,1014.74
2018-11-02T08:21:25.661Z,1014.75
2018-11-02T08:22:25.648Z,1014.80
2018-11-02T08:23:25.671Z,1014.76
2018-11-02T08:24:25.712Z,1014.79
2018-11-02T08:25:25.619Z,1014.78
2018-11-02T08:26:25.608Z,1014.82
2018-11-02T08:27:25.600Z,1014.82
2018-11-02T08:28:25.607Z,1014.82
2018-11-02T08:29:25.572Z,1014.82
2018-11-02T08:30:25.565Z,1014.83
2018-11-02T08:31:25.561Z,1014.84
2018-11-02T08:32:25.547Z,1014.90
2018-11-02T08:33:25.560Z,1014.88
2018-11-02T08:34:25.523Z,1014.85
2018-11-02T08:35:25.505Z,1014.90
2018-11-02T08:36:25.501Z,1014.88
2018-11-02T08:37:25.482Z,1014.91
2018-11-02T08:38:25.495Z,1014.85
2018-11-02T08:39:25.466Z,1014.91
2018-11-02T08:40:25.456Z,1014.91
2018-11-02T08:41:25.442Z,1014.98
2018-11-02T08:42:25.441Z,1014.90
2018-11-02T08:43:25.437Z,1014.87
2018-11-02T08:44:25.410Z,1014.89
2018-11-02T08:45:25.395Z,1014.95
2018-11-02T08:46:25.455Z,1014.95
2018-11-02T08:47:25.375Z,1014.93
2018-11-02T08:48:25.367Z,1015.01
2018-11-02T08:49:25.375Z,1014.93
2018-11-02T08:50:25.360Z,1014.92
2018-11-02T08:51:25.325Z,1014.96
2018-11-02T08:52:25.393Z,1014.90
2018-11-02T08:53:25.309Z,1014.95
2018-11-02T08:54:25.318Z,1014.93
2018-11-02T08:55:25.285Z,1015.02
2018-11-02T08:56:25.279Z,1015.03
2018-11-02T08:57:25.258Z,1015.03
2018-11-02T08:58:25.476Z,1014.98
2018-11-02T08:59:25.450Z,1015.07
2018-11-02T09:00:25.225Z,1015.03
2018-11-02T09:01:25.223Z,1015.11
2018-11-02T09:02:25.204Z,1015.09
2018-11-02T09:03:25.193Z,1015.11
2018-11-02T09:04:25.204Z,1015.13
2018-11-02T09:05:25.170Z,1015.21
2018-11-02T09:06:25.165Z,1015.20
2018-11-02T09:07:25.155Z,1015.22
2018-11-02T09:08:25.175Z,1015.26
2018-11-02T09:09:25.156Z,1015.28
2018-11-02T09:10:25.119Z,1015.33
2018-11-02T09:11:25.105Z,1015.30
2018-11-02T09:12:25.095Z,1015.34
2018-11-02T09:13:25.082Z,1015.29
2018-11-02T09:14:25.094Z,1015.34
2018-11-02T09:15:25.059Z,1015.40
2018-11-02T09:16:25.060Z,1015.45
2018-11-02T09:17:25.040Z,1015.43
2018-11-02T09:18:25.079Z,1015.41
2018-11-02T09:19:25.125Z,1015.46
2018-11-02T09:20:25.005Z,1015.46
2018-11-02T09:21:24.994Z,1015.48
2018-11-02T09:22:24.980Z,1015.46
2018-11-02T09:23:24.975Z,1015.50
2018-11-02T09:24:24.983Z,1015.49
2018-11-02T09:25:24.953Z,1015.50
2018-11-02T09:26:24.936Z,1015.53
2018-11-02T09:27:24.929Z,1015.55
2018-11-02T09:28:24.919Z,1015.53
2018-11-02T09:29:24.937Z,1015.57
2018-11-02T09:30:24.895Z,1015.58
2018-11-02T09:31:24.883Z,1015.62
2018-11-02T09:32:24.874Z,1015.67
2018-11-02T09:33:24.863Z,1015.64
2018-11-02T09:34:24.871Z,1015.64
2018-11-02T09:35:24.851Z,1015.60
2018-11-02T09:36:24.826Z,1015.69
2018-11-02T09:37:24.816Z,1015.62
2018-11-02T09:38:24.805Z,1015.65
2018-11-02T09:39:24.815Z,1015.67
2018-11-02T09:40:24.866Z,1015.65
2018-11-02T09:41:24.773Z,1015.70
2018-11-02T09:42:24.765Z,1015.66
2018-11-02T09:43:24.758Z,1015.68
2018-11-02T09:44:24.761Z,1015.73
2018-11-02T09:45:24.724Z,1015.75
2018-11-02T09:46:24.712Z,1015.75
2018-11-02T09:47:24.705Z,1015.80
2018-11-02T09:48:24.690Z,1015.86
2018-11-02T09:49:24.704Z,1015.85
2018-11-02T09:50:24.677Z,1015.87
2018-11-02T09:51:24.735Z,1015.89
2018-11-02T09:52:24.646Z,1015.89
2018-11-02T09:53:24.646Z,1015.85
2018-11-02T09:54:24.669Z,1015.87
2018-11-02T09:55:24.612Z,1015.90
2018-11-02T09:56:24.604Z,1015.93
2018-11-02T09:57:24.640Z,1015.99
2018-11-02T09:58:24.585Z,1015.97
2018-11-02T09:59:24.600Z,1015.99
2018-11-02T10:00:24.591Z,1015.96
2018-11-02T10:01:24.546Z,1016.02
2018-11-02T10:02:24.537Z,1016.02
2018-11-02T10:03:24.533Z,1015.99
2018-11-02T10:04:24.606Z,1016.07
2018-11-02T10:05:24.500Z,1016.11
2018-11-02T10:06:24.500Z,1016.07
2018-11-02T10:07:24.478Z,1016.11
2018-11-02T10:08:24.539Z,1016.12
2018-11-02T10:09:24.494Z,1016.12
2018-11-02T10:10:24.452Z,1016.15
2018-11-02T10:11:24.432Z,1016.14
2018-11-02T10:12:24.423Z,1016.17
2018-11-02T10:13:24.418Z,1016.15
2018-11-02T10:14:24.436Z,1016.13
2018-11-02T10:15:24.392Z,1016.15
2018-11-02T10:16:24.381Z,1016.15
2018-11-02T10:17:24.370Z,1016.11
2018-11-02T10:18:24.357Z,1016.10
2018-11-02T10:19:24.368Z,1016.12
2018-11-02T10:20:24.334Z,1016.11
2018-11-02T10:21:24.338Z,1016.07
2018-11-02T10:22:24.314Z,1016.04
2018-11-02T10:23:24.298Z,1016.09
2018-11-02T10:24:24.324Z,1016.05
2018-11-02T10:25:24.278Z,1016.06
2018-11-02T10:26:24.266Z,1016.11
2018-11-02T10:27:24.256Z,1016.10
2018-11-02T10:28:24.242Z,1016.07
2018-11-02T10:29:24.268Z,1016.14
2018-11-02T10:30:24.229Z,1016.14
2018-11-02T10:31:24.209Z,1016.15
2018-11-02T10:32:24.200Z,1016.17
2018-11-02T10:33:24.189Z,1016.17
2018-11-02T10:34:24.201Z,1016.18
2018-11-02T10:35:24.228Z,1016.21
2018-11-02T10:36:24.154Z,1016.20
2018-11-02T10:37:24.144Z,1016.16
2018-11-02T10:38:24.135Z,1016.17
2018-11-02T10:39:24.207Z,1016.21
2018-11-02T10:40:24.130Z,1016.25
2018-11-02T10:41:24.105Z,1016.18
2018-11-02T10:42:24.097Z,1016.21
2018-11-02T10:43:24.075Z,1016.20
2018-11-02T10:44:24.162Z,1016.20
2018-11-02T10:45:24.129Z,1016.22
2018-11-02T10:46:24.045Z,1016.28
2018-11-02T10:47:24.085Z,1016.26
2018-11-02T10:48:24.032Z,1016.27
2018-11-02T10:49:24.090Z,1016.31
2018-11-02T10:50:24.023Z,1016.33
2018-11-02T10:51:23.997Z,1016.33
2018-11-02T10:52:23.985Z,1016.39
2018-11-02T10:53:23.972Z,1016.37
2018-11-02T10:54:24.017Z,1016.39
2018-11-02T10:55:23.964Z,1016.42
2018-11-02T10:56:24.139Z,1016.46
2018-11-02T10:57:23.978Z,1016.44
2018-11-02T10:58:23.924Z,1016.49
2018-11-02T10:59:23.904Z,1016.53
2018-11-02T11:00:23.927Z,1016.61
2018-11-02T11:01:23.886Z,1016.56
2018-11-02T11:02:23.863Z,1016.61
2018-11-02T11:03:23.860Z,1016.57
2018-11-02T11:04:23.841Z,1016.60
2018-11-02T11:05:23.946Z,1016.61
2018-11-02T11:06:23.839Z,1016.62
2018-11-02T11:07:23.810Z,1016.61
2018-11-02T11:08:23.797Z,1016.68
2018-11-02T11:09:23.784Z,1016.65
2018-11-02T11:10:23.799Z,1016.67
2018-11-02T11:11:23.830Z,1016.64
2018-11-02T11:12:23.920Z,1016.71
2018-11-02T11:13:24.209Z,1016.66
2018-11-02T11:14:23.732Z,1016.71
2018-11-02T11:15:23.745Z,1016.73
2018-11-02T11:16:23.708Z,1016.74
2018-11-02T11:17:23.704Z,1016.79
2018-11-02T11:18:23.686Z,1016.78
2018-11-02T11:19:23.675Z,1016.78
2018-11-02T11:20:23.687Z,1016.83
2018-11-02T11:21:23.786Z,1016.83
2018-11-02T11:22:23.643Z,1016.78
2018-11-02T11:23:23.636Z,1016.77
2018-11-02T11:24:23.674Z,1016.78
2018-11-02T11:25:23.638Z,1016.80
2018-11-02T11:26:23.595Z,1016.81
2018-11-02T11:27:23.595Z,1016.81
2018-11-02T11:28:23.576Z,1016.81
2018-11-02T11:29:23.663Z,1016.85
2018-11-02T11:30:23.579Z,1016.89
2018-11-02T11:31:23.543Z,1016.87
2018-11-02T11:32:23.532Z,1016.84
2018-11-02T11:33:23.517Z,1016.84
2018-11-02T11:34:23.521Z,1016.89
2018-11-02T11:35:23.520Z,1016.82
2018-11-02T11:36:23.497Z,1016.83
2018-11-02T11:37:23.501Z,1016.84
2018-11-02T11:38:23.464Z,1016.86
2018-11-02T11:39:23.490Z,1016.91
2018-11-02T11:40:23.462Z,1016.87
2018-11-02T11:41:23.427Z,1016.97
2018-11-02T11:42:23.421Z,1016.99
2018-11-02T11:43:23.408Z,1016.93
2018-11-02T11:44:23.396Z,1016.93
2018-11-02T11:45:23.413Z,1016.99
2018-11-02T11:46:23.372Z,1016.96
2018-11-02T11:47:23.362Z,1016.94
2018-11-02T11:48:23.378Z,1016.92
2018-11-02T11:49:23.341Z,1016.91
2018-11-02T11:50:23.354Z,1016.94
2018-11-02T11:51:23.318Z,1016.93
2018-11-02T11:52:23.316Z,1016.94
2018-11-02T11:53:23.299Z,1016.96
2018-11-02T11:54:23.322Z,1016.95
2018-11-02T11:55:23.303Z,1016.91
2018-11-02T11:56:23.261Z,1016.91
2018-11-02T11:57:23.249Z,1016.93
2018-11-02T11:58:23.251Z,1016.94
2018-11-02T11:59:23.229Z,1016.91
2018-11-02T12:00:23.240Z,1016.96
2018-11-02T12:01:23.206Z,1016.95
2018-11-02T12:02:23.344Z,1017.01
2018-11-02T12:03:23.192Z,1016.98
2018-11-02T12:04:23.241Z,1017.00
2018-11-02T12:05:23.208Z,1016.99